createdAt,value
2016-05-10T00:00:21.533Z,0
2016-05-10T00:01:21.660Z,0
2016-05-10T00:02:21.335Z,0
2016-05-10T00:03:21.635Z,0
2016-05-10T00:04:21.607Z,0
2016-05-10T00:05:21.593Z,0
2016-05-10T00:06:21.565Z,0
2016-05-10T00:07:21.552Z,0
2016-05-10T00:08:21.398Z,0
2016-05-10T00:09:21.510Z,0
2016-05-10T00:10:21.341Z,0
2016-05-10T00:11:21.469Z,0
2016-05-10T00:12:21.483Z,0
2016-05-10T00:13:21.355Z,0
2016-05-10T00:14:21.711Z,0
2016-05-10T00:15:21.552Z,0
2016-05-10T00:16:21.581Z,0
2016-05-10T00:17:21.591Z,0
2016-05-10T00:18:21.608Z,0
2016-05-10T00:19:21.422Z,0
2016-05-10T00:20:21.580Z,0
2016-05-10T00:21:21.582Z,0
2016-05-10T00:22:21.405Z,0
2016-05-10T00:23:21.523Z,0
2016-05-10T00:24:21.375Z,0
2016-05-10T00:25:21.507Z,0
2016-05-10T00:26:21.484Z,0
2016-05-10T00:27:21.162Z,0
2016-05-10T00:28:21.308Z,0
2016-05-10T00:29:21.860Z,0
2016-05-10T00:30:21.442Z,0
2016-05-10T00:31:21.431Z,0
2016-05-10T00:32:21.262Z,0
2016-05-10T00:33:21.376Z,0
2016-05-10T00:34:21.363Z,0
2016-05-10T00:35:21.023Z,0
2016-05-10T00:36:21.167Z,0
2016-05-10T00:37:21.310Z,0
2016-05-10T00:38:21.299Z,0
2016-05-10T00:39:21.129Z,0
2016-05-10T00:40:21.257Z,0
2016-05-10T00:41:21.213Z,0
2016-05-10T00:42:21.216Z,0
2016-05-10T00:43:21.188Z,0
2016-05-10T00:44:20.721Z,0
2016-05-10T00:45:21.163Z,0
2016-05-10T00:46:20.977Z,0
2016-05-10T00:47:21.136Z,0
2016-05-10T00:48:21.092Z,0
2016-05-10T00:49:21.079Z,0
2016-05-10T00:50:21.066Z,0
2016-05-10T00:51:21.084Z,0
2016-05-10T00:52:20.868Z,0
2016-05-10T00:53:20.840Z,0
2016-05-10T00:54:20.999Z,0
2016-05-10T00:55:20.971Z,0
2016-05-10T00:56:20.957Z,0
2016-05-10T00:57:20.960Z,0
2016-05-10T00:58:20.900Z,0
2016-05-10T00:59:20.793Z,0
2016-05-10T01:00:20.874Z,0
2016-05-10T01:01:20.861Z,0
2016-05-10T01:02:20.676Z,0
2016-05-10T01:03:20.836Z,0
2016-05-10T01:04:20.792Z,0
2016-05-10T01:05:20.778Z,0
2016-05-10T01:06:20.765Z,0
2016-05-10T01:07:20.737Z,0
2016-05-10T01:08:20.739Z,0
2016-05-10T01:09:20.555Z,0
2016-05-10T01:10:20.698Z,0
2016-05-10T01:11:20.513Z,0
2016-05-10T01:12:20.500Z,0
2016-05-10T01:13:20.644Z,0
2016-05-10T01:14:21.116Z,0
2016-05-10T01:15:20.602Z,0
2016-05-10T01:16:20.574Z,0
2016-05-10T01:17:20.561Z,0
2016-05-10T01:18:20.610Z,0
2016-05-10T01:19:20.519Z,0
2016-05-10T01:20:20.507Z,0
2016-05-10T01:21:20.321Z,0
2016-05-10T01:22:20.465Z,0
2016-05-10T01:23:20.452Z,0
2016-05-10T01:24:20.127Z,0
2016-05-10T01:25:20.410Z,0
2016-05-10T01:26:20.241Z,0
2016-05-10T01:27:20.368Z,0
2016-05-10T01:28:20.356Z,0
2016-05-10T01:29:20.546Z,0
2016-05-10T01:30:20.329Z,0
2016-05-10T01:31:20.317Z,0
2016-05-10T01:32:20.289Z,0
2016-05-10T01:33:20.120Z,0
2016-05-10T01:34:20.262Z,0
2016-05-10T01:35:20.234Z,0
2016-05-10T01:36:20.206Z,0
2016-05-10T01:37:20.192Z,0
2016-05-10T01:38:20.180Z,0
2016-05-10T01:39:20.136Z,0
2016-05-10T01:40:19.967Z,0
2016-05-10T01:41:20.094Z,0
2016-05-10T01:42:20.097Z,0
2016-05-10T01:43:20.068Z,0
2016-05-10T01:44:21.946Z,0
2016-05-10T01:45:20.136Z,0
2016-05-10T01:46:20.045Z,0
2016-05-10T01:47:19.986Z,0
2016-05-10T01:48:19.988Z,0
2016-05-10T01:49:19.802Z,0
2016-05-10T01:50:19.790Z,0
2016-05-10T01:51:19.918Z,0
2016-05-10T01:52:19.921Z,0
2016-05-10T01:53:19.736Z,0
2016-05-10T01:54:19.863Z,0
2016-05-10T01:55:19.851Z,0
2016-05-10T01:56:19.821Z,0
2016-05-10T01:57:19.794Z,0
2016-05-10T01:58:19.796Z,0
2016-05-10T01:59:20.424Z,0
2016-05-10T02:00:19.612Z,0
2016-05-10T02:01:19.739Z,0
2016-05-10T02:02:19.710Z,0
2016-05-10T02:03:19.540Z,0
2016-05-10T02:04:19.668Z,0
2016-05-10T02:05:19.500Z,0
2016-05-10T02:06:19.346Z,0
2016-05-10T02:07:19.615Z,0
2016-05-10T02:08:19.601Z,0
2016-05-10T02:09:19.572Z,0
2016-05-10T02:10:19.403Z,0
2016-05-10T02:11:19.547Z,0
2016-05-10T02:12:19.362Z,0
2016-05-10T02:13:19.506Z,0
2016-05-10T02:14:19.758Z,0
2016-05-10T02:15:19.464Z,0
2016-05-10T02:16:19.450Z,0
2016-05-10T02:17:19.282Z,0
2016-05-10T02:18:19.410Z,0
2016-05-10T02:19:19.397Z,0
2016-05-10T02:20:19.055Z,0
2016-05-10T02:21:19.355Z,0
2016-05-10T02:22:19.186Z,0
2016-05-10T02:23:19.329Z,0
2016-05-10T02:24:19.144Z,0
2016-05-10T02:25:19.132Z,0
2016-05-10T02:26:19.103Z,0
2016-05-10T02:27:19.230Z,0
2016-05-10T02:28:19.218Z,0
2016-05-10T02:29:19.455Z,0
2016-05-10T02:30:19.160Z,0
2016-05-10T02:31:18.851Z,0
2016-05-10T02:32:19.150Z,0
2016-05-10T02:33:18.981Z,0
2016-05-10T02:34:18.953Z,0
2016-05-10T02:35:19.081Z,0
2016-05-10T02:36:18.927Z,0
2016-05-10T02:37:19.054Z,0
2016-05-10T02:38:19.041Z,0
2016-05-10T02:39:19.012Z,0
2016-05-10T02:40:18.828Z,0
2016-05-10T02:41:18.972Z,0
2016-05-10T02:42:18.959Z,0
2016-05-10T02:43:18.945Z,0
2016-05-10T02:44:18.808Z,0
2016-05-10T02:45:18.919Z,0
2016-05-10T02:46:18.876Z,0
2016-05-10T02:47:18.722Z,0
2016-05-10T02:48:18.849Z,0
2016-05-10T02:49:18.681Z,0
2016-05-10T02:50:18.808Z,0
2016-05-10T02:51:18.794Z,0
2016-05-10T02:52:18.767Z,0
2016-05-10T02:53:18.769Z,0
2016-05-10T02:54:18.725Z,0
2016-05-10T02:55:18.541Z,0
2016-05-10T02:56:18.543Z,0
2016-05-10T02:57:18.686Z,0
2016-05-10T02:58:18.673Z,0
2016-05-10T02:59:19.191Z,0
2016-05-10T03:00:18.476Z,0
2016-05-10T03:01:18.587Z,0
2016-05-10T03:02:18.575Z,0
2016-05-10T03:03:18.406Z,0
2016-05-10T03:04:18.549Z,0
2016-05-10T03:05:18.520Z,0
2016-05-10T03:06:18.539Z,0
2016-05-10T03:07:18.495Z,0
2016-05-10T03:08:18.309Z,0
2016-05-10T03:09:18.437Z,0
2016-05-10T03:10:18.284Z,0
2016-05-10T03:11:18.255Z,0
2016-05-10T03:12:18.398Z,0
2016-05-10T03:13:18.229Z,0
2016-05-10T03:14:20.092Z,0
2016-05-10T03:15:18.188Z,0
2016-05-10T03:16:18.331Z,0
2016-05-10T03:17:18.302Z,0
2016-05-10T03:18:18.134Z,0
2016-05-10T03:19:18.105Z,0
2016-05-10T03:20:18.232Z,0
2016-05-10T03:21:18.080Z,0
2016-05-10T03:22:18.222Z,0
2016-05-10T03:23:18.177Z,0
2016-05-10T03:24:18.008Z,0
2016-05-10T03:25:17.980Z,0
2016-05-10T03:26:18.108Z,0
2016-05-10T03:27:18.111Z,0
2016-05-10T03:28:18.098Z,0
2016-05-10T03:29:18.288Z,0
2016-05-10T03:30:17.885Z,0
2016-05-10T03:31:18.027Z,0
2016-05-10T03:32:18.015Z,0
2016-05-10T03:33:17.846Z,0
2016-05-10T03:34:17.973Z,0
2016-05-10T03:35:17.960Z,0
2016-05-10T03:36:17.948Z,0
2016-05-10T03:37:17.934Z,0
2016-05-10T03:38:17.579Z,0
2016-05-10T03:39:17.861Z,0
2016-05-10T03:40:17.583Z,0
2016-05-10T03:41:17.695Z,0
2016-05-10T03:42:17.807Z,0
2016-05-10T03:43:17.810Z,0
2016-05-10T03:44:17.797Z,0
2016-05-10T03:45:17.769Z,0
2016-05-10T03:46:17.631Z,0
2016-05-10T03:47:17.742Z,0
2016-05-10T03:48:17.714Z,0
2016-05-10T03:49:17.701Z,0
2016-05-10T03:50:17.533Z,0
2016-05-10T03:51:17.660Z,0
2016-05-10T03:52:17.333Z,0
2016-05-10T03:53:17.618Z,0
2016-05-10T03:54:17.605Z,0
2016-05-10T03:55:17.592Z,0
2016-05-10T03:56:17.408Z,0
2016-05-10T03:57:17.536Z,0
2016-05-10T03:58:17.538Z,0
2016-05-10T03:59:18.946Z,0
2016-05-10T04:00:17.168Z,0
2016-05-10T04:01:17.483Z,0
2016-05-10T04:02:17.455Z,0
2016-05-10T04:03:17.426Z,0
2016-05-10T04:04:17.429Z,0
2016-05-10T04:05:17.384Z,0
2016-05-10T04:06:17.215Z,0
2016-05-10T04:07:17.374Z,0
2016-05-10T04:08:17.331Z,0
2016-05-10T04:09:17.021Z,0
2016-05-10T04:10:17.304Z,0
2016-05-10T04:11:17.135Z,0
2016-05-10T04:12:17.107Z,0
2016-05-10T04:13:17.250Z,0
2016-05-10T04:14:17.097Z,0
2016-05-10T04:15:17.240Z,0
2016-05-10T04:16:17.023Z,0
2016-05-10T04:17:17.011Z,0
2016-05-10T04:18:16.983Z,0
2016-05-10T04:19:17.141Z,0
2016-05-10T04:20:17.128Z,0
2016-05-10T04:21:16.927Z,0
2016-05-10T04:22:17.086Z,0
2016-05-10T04:23:16.902Z,0
2016-05-10T04:24:16.874Z,0
2016-05-10T04:25:17.033Z,0
2016-05-10T04:26:17.005Z,0
2016-05-10T04:27:16.835Z,0
2016-05-10T04:28:16.946Z,0
2016-05-10T04:29:18.683Z,0
2016-05-10T04:30:16.952Z,0
2016-05-10T04:31:16.908Z,0
2016-05-10T04:32:16.739Z,0
2016-05-10T04:33:16.710Z,0
2016-05-10T04:34:16.837Z,0
2016-05-10T04:35:16.857Z,0
2016-05-10T04:36:16.671Z,0
2016-05-10T04:37:16.643Z,0
2016-05-10T04:38:16.771Z,0
2016-05-10T04:39:16.742Z,0
2016-05-10T04:40:16.745Z,0
2016-05-10T04:41:16.715Z,0
2016-05-10T04:42:16.687Z,0
2016-05-10T04:43:16.550Z,0
2016-05-10T04:44:16.678Z,0
2016-05-10T04:45:16.634Z,0
2016-05-10T04:46:16.323Z,0
2016-05-10T04:47:16.606Z,0
2016-05-10T04:48:16.594Z,0
2016-05-10T04:49:16.581Z,0
2016-05-10T04:50:16.537Z,0
2016-05-10T04:51:16.384Z,0
2016-05-10T04:52:16.355Z,0
2016-05-10T04:53:16.497Z,0
2016-05-10T04:54:16.485Z,0
2016-05-10T04:55:16.457Z,0
2016-05-10T04:56:16.444Z,0
2016-05-10T04:57:16.430Z,0
2016-05-10T04:58:16.247Z,0
2016-05-10T04:59:16.249Z,0
2016-05-10T05:00:16.361Z,0
2016-05-10T05:01:16.349Z,0
2016-05-10T05:02:16.335Z,0
2016-05-10T05:03:16.135Z,0
2016-05-10T05:04:16.137Z,0
2016-05-10T05:05:16.109Z,0
2016-05-10T05:06:16.283Z,0
2016-05-10T05:07:16.082Z,0
2016-05-10T05:08:15.898Z,0
2016-05-10T05:09:16.026Z,0
2016-05-10T05:10:16.184Z,4
2016-05-10T05:11:16.157Z,4
2016-05-10T05:12:16.143Z,4
2016-05-10T05:13:16.130Z,4
2016-05-10T05:14:16.118Z,4
2016-05-10T05:15:15.917Z,4
2016-05-10T05:16:15.919Z,8
2016-05-10T05:17:16.048Z,4
2016-05-10T05:18:16.019Z,8
2016-05-10T05:19:16.006Z,8
2016-05-10T05:20:15.805Z,12
2016-05-10T05:21:15.948Z,16
2016-05-10T05:22:15.951Z,16
2016-05-10T05:23:15.938Z,24
2016-05-10T05:24:15.910Z,32
2016-05-10T05:25:15.584Z,40
2016-05-10T05:26:15.884Z,52
2016-05-10T05:27:15.839Z,52
2016-05-10T05:28:15.842Z,60
2016-05-10T05:29:15.829Z,76
2016-05-10T05:30:15.801Z,84
2016-05-10T05:31:15.788Z,88
2016-05-10T05:32:15.774Z,100
2016-05-10T05:33:15.747Z,108
2016-05-10T05:34:15.578Z,120
2016-05-10T05:35:15.705Z,128
2016-05-10T05:36:15.707Z,136
2016-05-10T05:37:15.648Z,140
2016-05-10T05:38:15.651Z,152
2016-05-10T05:39:15.637Z,172
2016-05-10T05:40:15.468Z,192
2016-05-10T05:41:15.596Z,212
2016-05-10T05:42:15.584Z,232
2016-05-10T05:43:15.554Z,248
2016-05-10T05:44:15.542Z,256
2016-05-10T05:45:15.529Z,264
2016-05-10T05:46:15.515Z,268
2016-05-10T05:47:15.487Z,276
2016-05-10T05:48:15.318Z,284
2016-05-10T05:49:15.445Z,284
2016-05-10T05:50:15.434Z,284
2016-05-10T05:51:15.436Z,284
2016-05-10T05:52:15.391Z,292
2016-05-10T05:53:15.363Z,320
2016-05-10T05:54:15.194Z,364
2016-05-10T05:55:15.321Z,428
2016-05-10T05:56:15.308Z,488
2016-05-10T05:57:15.295Z,540
2016-05-10T05:58:15.282Z,564
2016-05-10T05:59:15.457Z,532
2016-05-10T06:00:15.225Z,532
2016-05-10T06:01:15.228Z,520
2016-05-10T06:02:15.215Z,516
2016-05-10T06:03:15.030Z,520
2016-05-10T06:04:15.189Z,544
2016-05-10T06:05:14.692Z,556
2016-05-10T06:06:15.148Z,548
2016-05-10T06:07:14.947Z,540
2016-05-10T06:08:15.107Z,552
2016-05-10T06:09:15.078Z,580
2016-05-10T06:10:14.892Z,608
2016-05-10T06:11:15.036Z,632
2016-05-10T06:12:15.023Z,624
2016-05-10T06:13:14.838Z,608
2016-05-10T06:14:14.982Z,608
2016-05-10T06:15:14.969Z,608
2016-05-10T06:16:14.956Z,620
2016-05-10T06:17:14.942Z,632
2016-05-10T06:18:14.930Z,644
2016-05-10T06:19:14.886Z,616
2016-05-10T06:20:14.701Z,560
2016-05-10T06:21:14.704Z,492
2016-05-10T06:22:14.848Z,428
2016-05-10T06:23:14.662Z,368
2016-05-10T06:24:14.650Z,320
2016-05-10T06:25:14.777Z,268
2016-05-10T06:26:14.764Z,212
2016-05-10T06:27:14.750Z,172
2016-05-10T06:28:14.723Z,156
2016-05-10T06:29:14.725Z,156
2016-05-10T06:30:14.697Z,164
2016-05-10T06:31:14.511Z,160
2016-05-10T06:32:14.656Z,216
2016-05-10T06:33:14.626Z,324
2016-05-10T06:34:14.613Z,376
2016-05-10T06:35:14.429Z,348
2016-05-10T06:36:14.572Z,212
2016-05-10T06:37:14.559Z,120
2016-05-10T06:38:14.375Z,196
2016-05-10T06:39:14.533Z,240
2016-05-10T06:40:14.504Z,244
2016-05-10T06:41:14.335Z,252
2016-05-10T06:42:14.338Z,268
2016-05-10T06:43:14.310Z,300
2016-05-10T06:44:14.438Z,344
2016-05-10T06:45:14.268Z,388
2016-05-10T06:46:14.256Z,432
2016-05-10T06:47:14.384Z,492
2016-05-10T06:48:14.370Z,540
2016-05-10T06:49:14.185Z,580
2016-05-10T06:50:14.298Z,700
2016-05-10T06:51:14.284Z,780
2016-05-10T06:52:14.272Z,864
2016-05-10T06:53:14.134Z,1016
2016-05-10T06:54:14.246Z,1212
2016-05-10T06:55:14.061Z,1368
2016-05-10T06:56:14.047Z,1332
2016-05-10T06:57:14.175Z,1120
2016-05-10T06:58:14.022Z,820
2016-05-10T06:59:15.556Z,856
2016-05-10T07:00:14.136Z,944
2016-05-10T07:01:13.952Z,772
2016-05-10T07:02:14.079Z,640
2016-05-10T07:03:14.067Z,680
2016-05-10T07:04:13.897Z,916
2016-05-10T07:05:14.025Z,1116
2016-05-10T07:06:14.012Z,1276
2016-05-10T07:07:14.015Z,1504
2016-05-10T07:08:13.815Z,1528
2016-05-10T07:09:13.942Z,1624
2016-05-10T07:10:13.774Z,1516
2016-05-10T07:11:13.916Z,1440
2016-05-10T07:12:13.590Z,1600
2016-05-10T07:13:13.718Z,1788
2016-05-10T07:14:14.112Z,1968
2016-05-10T07:15:13.584Z,2452
2016-05-10T07:16:13.837Z,2524
2016-05-10T07:17:13.792Z,2440
2016-05-10T07:18:13.623Z,2676
2016-05-10T07:19:13.765Z,3028
2016-05-10T07:20:13.738Z,3480
2016-05-10T07:21:13.725Z,3828
2016-05-10T07:22:13.727Z,3864
2016-05-10T07:23:13.714Z,3916
2016-05-10T07:24:13.358Z,4172
2016-05-10T07:25:13.642Z,4524
2016-05-10T07:26:13.645Z,4660
2016-05-10T07:27:13.303Z,4676
2016-05-10T07:28:13.603Z,4668
2016-05-10T07:29:13.449Z,4548
2016-05-10T07:30:13.577Z,4464
2016-05-10T07:31:13.532Z,4508
2016-05-10T07:32:13.519Z,4424
2016-05-10T07:33:13.522Z,4368
2016-05-10T07:34:13.478Z,4428
2016-05-10T07:35:13.309Z,4376
2016-05-10T07:36:13.468Z,4576
2016-05-10T07:37:13.439Z,4912
2016-05-10T07:38:13.395Z,4656
2016-05-10T07:39:13.398Z,4552
2016-05-10T07:40:13.416Z,4356
2016-05-10T07:41:13.215Z,4244
2016-05-10T07:42:13.343Z,3960
2016-05-10T07:43:13.315Z,3900
2016-05-10T07:44:13.537Z,3536
2016-05-10T07:45:13.133Z,3436
2016-05-10T07:46:13.260Z,3496
2016-05-10T07:47:13.248Z,3528
2016-05-10T07:48:13.234Z,3364
2016-05-10T07:49:13.034Z,3420
2016-05-10T07:50:13.693Z,3508
2016-05-10T07:51:13.056Z,3416
2016-05-10T07:52:13.214Z,3056
2016-05-10T07:53:13.123Z,2752
2016-05-10T07:54:12.954Z,2404
2016-05-10T07:55:13.098Z,2204
2016-05-10T07:56:12.944Z,2492
2016-05-10T07:57:13.040Z,2728
2016-05-10T07:58:13.042Z,2840
2016-05-10T07:59:13.014Z,3000
2016-05-10T08:00:13.001Z,3552
2016-05-10T08:01:12.957Z,4024
2016-05-10T08:02:12.975Z,4224
2016-05-10T08:03:12.947Z,4476
2016-05-10T08:04:12.918Z,4624
2016-05-10T08:05:12.905Z,4856
2016-05-10T08:06:12.752Z,5188
2016-05-10T08:07:12.708Z,5520
2016-05-10T08:08:12.694Z,5700
2016-05-10T08:09:12.838Z,5964
2016-05-10T08:10:12.669Z,6004
2016-05-10T08:11:12.812Z,5980
2016-05-10T08:12:12.768Z,5924
2016-05-10T08:13:12.443Z,6024
2016-05-10T08:14:12.601Z,6308
2016-05-10T08:15:12.416Z,6460
2016-05-10T08:16:12.716Z,6372
2016-05-10T08:17:12.703Z,6268
2016-05-10T08:18:12.971Z,5868
2016-05-10T08:19:12.787Z,5680
2016-05-10T08:20:12.634Z,5568
2016-05-10T08:21:12.448Z,5584
2016-05-10T08:22:12.607Z,5244
2016-05-10T08:23:12.251Z,4876
2016-05-10T08:24:12.582Z,4652
2016-05-10T08:25:12.537Z,4292
2016-05-10T08:26:12.524Z,3932
2016-05-10T08:27:12.386Z,3244
2016-05-10T08:28:12.639Z,2648
2016-05-10T08:29:13.470Z,2312
2016-05-10T08:30:14.488Z,2592
2016-05-10T08:31:12.553Z,2352
2016-05-10T08:32:12.275Z,2652
2016-05-10T08:33:12.230Z,2516
2016-05-10T08:34:12.390Z,2520
2016-05-10T08:35:12.049Z,2728
2016-05-10T08:36:12.347Z,2888
2016-05-10T08:37:12.319Z,3192
2016-05-10T08:38:12.150Z,3228
2016-05-10T08:39:12.293Z,3392
2016-05-10T08:40:12.530Z,3320
2016-05-10T08:41:12.268Z,3244
2016-05-10T08:42:12.238Z,3304
2016-05-10T08:43:12.210Z,3180
2016-05-10T08:44:12.041Z,3560
2016-05-10T08:45:11.888Z,3584
2016-05-10T08:46:11.999Z,3864
2016-05-10T08:47:12.159Z,3764
2016-05-10T08:48:12.209Z,3688
2016-05-10T08:49:12.102Z,3616
2016-05-10T08:50:12.167Z,3380
2016-05-10T08:51:11.935Z,3268
2016-05-10T08:52:12.048Z,3364
2016-05-10T08:53:12.066Z,3384
2016-05-10T08:54:12.037Z,3432
2016-05-10T08:55:11.993Z,3512
2016-05-10T08:56:11.996Z,3576
2016-05-10T08:57:11.654Z,3572
2016-05-10T08:58:11.939Z,3072
2016-05-10T08:59:11.909Z,3508
2016-05-10T09:00:11.912Z,3624
2016-05-10T09:01:11.728Z,3952
2016-05-10T09:02:11.714Z,4684
2016-05-10T09:03:11.530Z,4580
2016-05-10T09:04:11.813Z,4964
2016-05-10T09:05:11.816Z,5316
2016-05-10T09:06:11.648Z,5812
2016-05-10T09:07:11.619Z,5960
2016-05-10T09:08:11.763Z,6992
2016-05-10T09:09:11.891Z,7784
2016-05-10T09:10:11.721Z,8680
2016-05-10T09:11:22.864Z,8812
2016-05-10T09:12:11.711Z,8752
2016-05-10T09:13:11.682Z,8272
2016-05-10T09:14:12.825Z,8604
2016-05-10T09:15:12.157Z,9584
2016-05-10T09:16:11.612Z,8776
2016-05-10T09:17:11.443Z,8680
2016-05-10T09:18:11.430Z,8504
2016-05-10T09:19:11.625Z,9064
2016-05-10T09:20:11.514Z,9464
2016-05-10T09:21:11.699Z,9500
2016-05-10T09:22:11.696Z,9184
2016-05-10T09:23:11.709Z,9312
2016-05-10T09:24:13.885Z,8832
2016-05-10T09:25:11.700Z,10940
2016-05-10T09:26:11.546Z,10376
2016-05-10T09:27:11.751Z,9116
2016-05-10T09:28:11.690Z,8440
2016-05-10T09:29:11.684Z,6916
2016-05-10T09:30:12.115Z,6596
2016-05-10T09:31:11.668Z,8088
2016-05-10T09:32:11.646Z,8584
2016-05-10T09:33:11.481Z,9500
2016-05-10T09:34:11.487Z,9492
2016-05-10T09:35:11.632Z,8052
2016-05-10T09:36:11.464Z,8892
2016-05-10T09:37:11.594Z,7240
2016-05-10T09:38:11.568Z,12220
2016-05-10T09:39:11.430Z,12216
2016-05-10T09:40:11.544Z,10288
2016-05-10T09:41:11.531Z,8428
2016-05-10T09:42:11.363Z,9472
2016-05-10T09:43:11.336Z,8116
2016-05-10T09:44:11.478Z,8224
2016-05-10T09:45:11.514Z,7532
2016-05-10T09:46:11.141Z,6456
2016-05-10T09:47:11.285Z,8708
2016-05-10T09:48:11.429Z,7620
2016-05-10T09:49:11.243Z,8384
2016-05-10T09:50:11.371Z,9532
2016-05-10T09:51:11.358Z,14400
2016-05-10T09:52:11.517Z,11432
2016-05-10T09:53:11.192Z,11004
2016-05-10T09:54:11.304Z,12976
2016-05-10T09:55:11.291Z,8288
2016-05-10T09:56:11.278Z,8548
2016-05-10T09:57:11.265Z,9776
2016-05-10T09:58:11.252Z,10300
2016-05-10T09:59:11.271Z,11756
2016-05-10T10:00:11.055Z,8096
2016-05-10T10:01:11.198Z,7104
2016-05-10T10:02:11.185Z,7384
2016-05-10T10:03:11.172Z,10080
2016-05-10T10:04:11.019Z,13276
2016-05-10T10:05:11.005Z,12864
2016-05-10T10:06:11.133Z,14352
2016-05-10T10:07:11.121Z,12804
2016-05-10T10:08:11.091Z,12748
2016-05-10T10:09:11.080Z,7748
2016-05-10T10:10:10.910Z,5680
2016-05-10T10:11:10.928Z,8848
2016-05-10T10:12:11.010Z,5156
2016-05-10T10:13:11.012Z,8792
2016-05-10T10:14:11.296Z,4756
2016-05-10T10:15:10.970Z,8928
2016-05-10T10:16:10.957Z,9256
2016-05-10T10:17:10.960Z,9760
2016-05-10T10:18:10.931Z,9252
2016-05-10T10:19:10.918Z,12012
2016-05-10T10:20:10.905Z,14124
2016-05-10T10:21:10.877Z,13460
2016-05-10T10:22:10.911Z,12568
2016-05-10T10:23:10.898Z,12704
2016-05-10T10:24:10.900Z,11620
2016-05-10T10:25:10.841Z,11404
2016-05-10T10:26:10.812Z,12820
2016-05-10T10:27:10.800Z,14008
2016-05-10T10:28:10.787Z,15004
2016-05-10T10:29:11.367Z,12384
2016-05-10T10:30:10.651Z,16396
2016-05-10T10:31:10.747Z,13312
2016-05-10T10:32:10.719Z,15816
2016-05-10T10:33:10.722Z,14000
2016-05-10T10:34:10.677Z,17696
2016-05-10T10:35:10.664Z,17408
2016-05-10T10:36:10.683Z,16108
2016-05-10T10:37:10.638Z,16252
2016-05-10T10:38:10.641Z,15652
2016-05-10T10:39:10.613Z,14632
2016-05-10T10:40:10.599Z,13856
2016-05-10T10:41:10.588Z,15700
2016-05-10T10:42:10.543Z,15512
2016-05-10T10:43:10.421Z,15572
2016-05-10T10:44:10.533Z,16212
2016-05-10T10:45:10.254Z,16508
2016-05-10T10:46:10.304Z,15964
2016-05-10T10:47:10.541Z,14564
2016-05-10T10:48:10.496Z,15000
2016-05-10T10:49:10.483Z,13768
2016-05-10T10:50:10.455Z,12532
2016-05-10T10:51:10.443Z,11836
2016-05-10T10:52:10.429Z,11380
2016-05-10T10:53:10.260Z,11968
2016-05-10T10:54:10.231Z,12304
2016-05-10T10:55:10.390Z,12052
2016-05-10T10:56:10.345Z,11868
2016-05-10T10:57:10.348Z,11992
2016-05-10T10:58:10.336Z,11968
2016-05-10T10:59:10.323Z,11724
2016-05-10T11:00:10.482Z,10212
2016-05-10T11:01:10.125Z,10772
2016-05-10T11:02:10.300Z,10312
2016-05-10T11:03:10.303Z,10556
2016-05-10T11:04:10.087Z,10880
2016-05-10T11:05:10.245Z,8632
2016-05-10T11:06:10.201Z,8184
2016-05-10T11:07:10.047Z,9208
2016-05-10T11:08:10.175Z,9504
2016-05-10T11:09:10.162Z,10080
2016-05-10T11:10:10.180Z,14852
2016-05-10T11:11:10.027Z,25824
2016-05-10T11:12:10.124Z,49440
2016-05-10T11:13:09.954Z,53312
2016-05-10T11:14:10.082Z,23104
2016-05-10T11:15:09.960Z,86016
2016-05-10T11:16:09.915Z,10864
2016-05-10T11:17:09.902Z,11380
2016-05-10T11:18:10.046Z,10108
2016-05-10T11:19:10.033Z,12104
2016-05-10T11:20:10.051Z,13920
2016-05-10T11:21:10.023Z,60896
2016-05-10T11:22:09.994Z,37760
2016-05-10T11:23:09.997Z,13176
2016-05-10T11:24:09.812Z,13044
2016-05-10T11:25:09.956Z,101536
2016-05-10T11:26:09.974Z,12604
2016-05-10T11:27:09.945Z,8468
2016-05-10T11:28:09.792Z,61728
2016-05-10T11:29:09.763Z,46720
2016-05-10T11:30:10.109Z,17192
2016-05-10T11:31:09.893Z,11404
2016-05-10T11:32:09.864Z,12980
2016-05-10T11:33:09.695Z,15892
2016-05-10T11:34:09.869Z,12624
2016-05-10T11:35:09.685Z,12068
2016-05-10T11:36:09.500Z,111520
2016-05-10T11:37:09.675Z,78368
2016-05-10T11:38:09.818Z,8852
2016-05-10T11:39:09.805Z,37600
2016-05-10T11:40:09.761Z,11540
2016-05-10T11:41:09.608Z,24224
2016-05-10T11:42:09.720Z,21632
2016-05-10T11:43:09.613Z,16116
2016-05-10T11:44:10.287Z,16768
2016-05-10T11:45:09.400Z,18976
2016-05-10T11:46:09.716Z,11528
2016-05-10T11:47:09.671Z,13400
2016-05-10T11:48:09.674Z,21152
2016-05-10T11:49:09.660Z,19392
2016-05-10T11:50:09.819Z,18624
2016-05-10T11:51:09.619Z,19904
2016-05-10T11:52:09.621Z,22496
2016-05-10T11:53:09.843Z,10952
2016-05-10T11:54:09.440Z,21376
2016-05-10T11:55:09.614Z,19200
2016-05-10T11:56:09.570Z,18176
2016-05-10T11:57:09.588Z,19616
2016-05-10T11:58:09.419Z,20544
2016-05-10T11:59:10.375Z,21856
2016-05-10T12:00:09.581Z,17920
2016-05-10T12:01:09.411Z,16792
2016-05-10T12:02:09.539Z,17132
2016-05-10T12:03:09.385Z,13720
2016-05-10T12:04:09.372Z,15584
2016-05-10T12:05:09.531Z,15952
2016-05-10T12:06:09.519Z,14116
2016-05-10T12:07:09.522Z,16844
2016-05-10T12:08:09.352Z,17472
2016-05-10T12:09:09.355Z,19872
2016-05-10T12:10:09.358Z,21568
2016-05-10T12:11:09.486Z,21312
2016-05-10T12:12:09.488Z,20096
2016-05-10T12:13:09.491Z,18400
2016-05-10T12:14:09.384Z,20096
2016-05-10T12:15:09.543Z,19616
2016-05-10T12:16:09.171Z,18432
2016-05-10T12:17:09.471Z,20032
2016-05-10T12:18:09.301Z,25504
2016-05-10T12:19:09.491Z,21920
2016-05-10T12:20:09.479Z,24800
2016-05-10T12:21:09.324Z,41056
2016-05-10T12:22:09.312Z,90912
2016-05-10T12:23:09.299Z,142272
2016-05-10T12:24:29.473Z,159808
2016-05-10T12:25:09.430Z,149408
2016-05-10T12:26:09.307Z,124064
2016-05-10T12:27:09.465Z,114944
2016-05-10T12:28:09.438Z,112544
2016-05-10T12:29:22.971Z,113760
2016-05-10T12:30:09.146Z,109408
2016-05-10T12:31:09.430Z,103456
2016-05-10T12:32:09.431Z,118272
2016-05-10T12:33:09.420Z,47264
2016-05-10T12:34:09.282Z,43264
2016-05-10T12:35:09.269Z,33248
2016-05-10T12:36:09.412Z,22976
2016-05-10T12:37:09.259Z,31296
2016-05-10T12:38:09.417Z,29856
2016-05-10T12:39:09.436Z,46272
2016-05-10T12:40:09.266Z,62016
2016-05-10T12:41:09.410Z,19328
2016-05-10T12:42:09.241Z,112160
2016-05-10T12:43:09.244Z,108832
2016-05-10T12:44:09.371Z,109952
2016-05-10T12:45:09.733Z,110144
2016-05-10T12:46:10.235Z,111040
2016-05-10T12:47:09.770Z,118016
2016-05-10T12:48:09.366Z,112544
2016-05-10T12:49:09.353Z,101600
2016-05-10T12:50:09.387Z,112608
2016-05-10T12:51:09.358Z,107744
2016-05-10T12:52:09.361Z,75872
2016-05-10T12:53:09.349Z,48928
2016-05-10T12:54:09.335Z,59168
2016-05-10T12:55:09.181Z,108128
2016-05-10T12:56:09.341Z,109568
2016-05-10T12:57:09.359Z,117568
2016-05-10T12:58:09.346Z,79712
2016-05-10T12:59:09.192Z,22656
2016-05-10T13:00:09.336Z,66272
2016-05-10T13:01:09.167Z,57376
2016-05-10T13:02:09.013Z,116992
2016-05-10T13:03:09.032Z,112064
2016-05-10T13:04:09.159Z,115520
2016-05-10T13:05:09.162Z,118464
2016-05-10T13:06:09.149Z,47648
2016-05-10T13:07:09.308Z,110784
2016-05-10T13:08:09.295Z,109984
2016-05-10T13:09:09.281Z,105472
2016-05-10T13:10:09.300Z,115072
2016-05-10T13:11:09.272Z,114240
2016-05-10T13:12:09.289Z,107808
2016-05-10T13:13:09.277Z,114880
2016-05-10T13:14:09.264Z,117856
2016-05-10T13:15:09.188Z,111488
2016-05-10T13:16:09.082Z,109920
2016-05-10T13:17:09.116Z,112032
2016-05-10T13:18:09.103Z,112352
2016-05-10T13:19:09.262Z,110624
2016-05-10T13:20:09.218Z,114208
2016-05-10T13:21:09.236Z,121056
2016-05-10T13:22:09.255Z,14608
2016-05-10T13:23:09.226Z,113792
2016-05-10T13:24:09.790Z,115872
2016-05-10T13:25:09.232Z,75136
2016-05-10T13:26:09.093Z,119488
2016-05-10T13:27:09.252Z,11384
2016-05-10T13:28:09.207Z,14780
2016-05-10T13:29:09.570Z,113472
2016-05-10T13:30:09.354Z,31872
2016-05-10T13:31:09.357Z,113312
2016-05-10T13:32:09.281Z,75904
2016-05-10T13:33:09.362Z,106336
2016-05-10T13:34:09.240Z,112960
2016-05-10T13:35:09.258Z,114976
2016-05-10T13:36:09.183Z,117312
2016-05-10T13:37:09.045Z,89984
2016-05-10T13:38:09.189Z,107328
2016-05-10T13:39:09.019Z,110848
2016-05-10T13:40:09.193Z,114880
2016-05-10T13:41:08.992Z,91648
2016-05-10T13:42:09.167Z,106400
2016-05-10T13:43:50.672Z,113280
2016-05-10T13:44:12.391Z,113856